Terminal Aerodrome Forecast
Issued by NWS

Home | Current Version | Previous Version | Text Only | Print | Product List | Glossary On
Versions: 1 2 3 4 5 6 7 8 9 10 11 12 13 14 15
000
FTPQ31 PGUM 180520
TAFGUM
TAF

TAF
PGSN 180520Z 1806/1906 05019G29KT P6SM VCSH SCT020 BKN040 OVC050
      TEMPO 1806/1809 5SM -SHRA SCT015 BKN030
     FM180900 05015G25KT P6SM VCSH SCT015 BKN040=

USA.gov is the U.S. government's official web portal to all federal, state and local government web resources and services.